Time;durP1;ratioP1;P1;durP2;ratioP2;P2;SDS_P1;SDS_P2;PMS_P1;PMS_P2;Temp;Humidity;BMP_temperature;BMP_pressure;BME280_temperature;BME280_humidity;BME280_pressure;Samples;Min_cycle;Max_cycle;Signal;HPM_P1;HPM_P2
2022/03/19 00:00:53;;;;;;;7.70;4.15;;;;;;;;;;5071374;28;20029;-68
2022/03/19 00:03:20;;;;;;;9.57;4.10;;;;;;;;;;5071597;28;20024;-68
2022/03/19 00:05:46;;;;;;;10.73;4.30;;;;;;;;;;5071539;28;20609;-68
2022/03/19 00:08:11;;;;;;;8.20;3.85;;;;;;;;;;5071306;28;20230;-68
2022/03/19 00:10:37;;;;;;;10.88;3.90;;;;;;;;;;5071576;28;20037;-67
2022/03/19 00:13:03;;;;;;;12.43;4.00;;;;;;;;;;5071965;28;20471;-67
2022/03/19 00:15:28;;;;;;;9.00;4.40;;;;;;;;;;5071250;28;20055;-67
2022/03/19 00:17:57;;;;;;;9.35;4.13;;;;;;;;;;5071181;28;20025;-67
2022/03/19 00:20:22;;;;;;;7.30;3.83;;;;;;;;;;5071712;28;20526;-68
2022/03/19 00:22:48;;;;;;;10.05;3.97;;;;;;;;;;5070879;28;20025;-68
2022/03/19 00:25:13;;;;;;;9.70;4.28;;;;;;;;;;5071208;28;20024;-67
2022/03/19 00:27:40;;;;;;;11.25;4.80;;;;;;;;;;5070786;28;20040;-66
2022/03/19 00:30:07;;;;;;;15.57;4.35;;;;;;;;;;5071044;28;20492;-67
2022/03/19 00:32:32;;;;;;;12.98;4.38;;;;;;;;;;5070944;28;20029;-67
2022/03/19 00:34:58;;;;;;;14.48;4.47;;;;;;;;;;5071194;28;20055;-67
2022/03/19 00:37:23;;;;;;;10.93;4.30;;;;;;;;;;5070454;28;20017;-67
2022/03/19 00:39:49;;;;;;;13.55;4.25;;;;;;;;;;5071068;28;20469;-67
2022/03/19 00:42:14;;;;;;;11.30;4.43;;;;;;;;;;5070771;28;20036;-68
2022/03/19 00:44:40;;;;;;;11.95;4.35;;;;;;;;;;5071063;28;20020;-66
2022/03/19 00:47:05;;;;;;;11.00;4.45;;;;;;;;;;5070393;28;20029;-67
2022/03/19 00:49:31;;;;;;;9.07;4.60;;;;;;;;;;5071149;28;20032;-69
2022/03/19 00:51:56;;;;;;;10.98;4.38;;;;;;;;;;5070524;28;20082;-68
2022/03/19 00:54:21;;;;;;;12.70;4.78;;;;;;;;;;5070769;28;20020;-67
2022/03/19 00:56:47;;;;;;;14.40;4.97;;;;;;;;;;5070417;28;20039;-68
2022/03/19 00:59:13;;;;;;;13.80;5.07;;;;;;;;;;5070268;28;20407;-67
2022/03/19 01:01:39;;;;;;;10.70;4.65;;;;;;;;;;5070001;28;20048;-67
2022/03/19 01:04:05;;;;;;;9.93;4.57;;;;;;;;;;5070510;28;20484;-67
2022/03/19 01:06:30;;;;;;;12.88;5.10;;;;;;;;;;5069389;28;20547;-69
2022/03/19 01:08:56;;;;;;;11.75;4.82;;;;;;;;;;5070064;28;20028;-68
2022/03/19 01:11:23;;;;;;;11.00;4.78;;;;;;;;;;5070181;28;20028;-68
2022/03/19 01:13:52;;;;;;;13.93;4.93;;;;;;;;;;5070380;28;20496;-68
2022/03/19 01:16:19;;;;;;;15.82;4.80;;;;;;;;;;5069776;28;20477;-67
2022/03/19 01:18:48;;;;;;;10.48;4.75;;;;;;;;;;5069843;28;20028;-66
2022/03/19 01:21:14;;;;;;;14.35;4.63;;;;;;;;;;5070120;28;20028;-66
2022/03/19 01:23:40;;;;;;;10.45;4.43;;;;;;;;;;5070064;28;20047;-68
2022/03/19 01:26:05;;;;;;;11.43;4.07;;;;;;;;;;5070094;28;20532;-68
2022/03/19 01:28:31;;;;;;;12.20;4.35;;;;;;;;;;5069941;28;20099;-68
2022/03/19 01:30:56;;;;;;;12.50;4.80;;;;;;;;;;5069996;28;20032;-67
2022/03/19 01:33:22;;;;;;;13.60;4.80;;;;;;;;;;5070599;28;20028;-68
2022/03/19 01:35:47;;;;;;;13.57;5.20;;;;;;;;;;5070120;28;20021;-67
2022/03/19 01:38:13;;;;;;;12.55;4.70;;;;;;;;;;5069568;28;20032;-68
2022/03/19 01:40:38;;;;;;;12.93;5.18;;;;;;;;;;5070130;28;20028;-65
2022/03/19 01:43:04;;;;;;;15.30;5.03;;;;;;;;;;5069724;28;20480;-67
2022/03/19 01:45:29;;;;;;;12.00;4.80;;;;;;;;;;5070407;28;20055;-67
2022/03/19 01:47:55;;;;;;;12.50;4.82;;;;;;;;;;5069983;28;20028;-66
2022/03/19 01:50:22;;;;;;;17.98;5.28;;;;;;;;;;5069907;28;20086;-68
2022/03/19 01:52:48;;;;;;;12.15;4.93;;;;;;;;;;5069717;28;20028;-67
2022/03/19 01:55:17;;;;;;;10.15;5.10;;;;;;;;;;5069832;28;20035;-67
2022/03/19 01:57:44;;;;;;;12.95;5.50;;;;;;;;;;5069742;28;20244;-66
2022/03/19 02:00:17;;;;;;;18.20;4.82;;;;;;;;;;5069444;28;20086;-69
2022/03/19 02:02:47;;;;;;;13.98;5.15;;;;;;;;;;5069772;28;20116;-68
2022/03/19 02:05:15;;;;;;;13.82;5.30;;;;;;;;;;5069851;28;20038;-67
2022/03/19 02:07:42;;;;;;;13.70;5.20;;;;;;;;;;5069545;28;20028;-67
2022/03/19 02:10:08;;;;;;;15.63;5.35;;;;;;;;;;5068340;28;20074;-66
2022/03/19 02:12:34;;;;;;;11.52;5.30;;;;;;;;;;5069479;28;20055;-66
2022/03/19 02:14:59;;;;;;;12.57;4.82;;;;;;;;;;5069467;28;20532;-68
2022/03/19 02:17:26;;;;;;;14.82;5.03;;;;;;;;;;5071982;28;20337;-66
2022/03/19 02:19:53;;;;;;;15.60;5.50;;;;;;;;;;5073284;28;20070;-67
2022/03/19 02:22:25;;;;;;;15.70;5.50;;;;;;;;;;5073341;28;20488;-67
2022/03/19 02:27:36;;;;;;;12.95;5.10;;;;;;;;;;5073480;28;20071;-67
2022/03/19 02:30:03;;;;;;;12.13;5.35;;;;;;;;;;5073044;28;20086;-67
2022/03/19 02:32:28;;;;;;;13.50;5.35;;;;;;;;;;5073161;28;20102;-67
2022/03/19 02:34:54;;;;;;;12.50;4.97;;;;;;;;;;5073231;28;20426;-67
2022/03/19 02:37:20;;;;;;;16.25;5.30;;;;;;;;;;5072907;28;20289;-69
2022/03/19 02:39:45;;;;;;;11.20;5.22;;;;;;;;;;5073201;28;20078;-68
2022/03/19 02:42:16;;;;;;;14.07;5.35;;;;;;;;;;5073016;28;20028;-67
2022/03/19 02:44:41;;;;;;;11.90;5.50;;;;;;;;;;5073130;28;20037;-69
2022/03/19 02:47:07;;;;;;;14.25;5.28;;;;;;;;;;5073069;28;20045;-68
2022/03/19 02:49:33;;;;;;;12.60;5.47;;;;;;;;;;5072579;28;20043;-65
2022/03/19 02:51:59;;;;;;;12.75;5.35;;;;;;;;;;5073203;28;20507;-68
2022/03/19 02:54:26;;;;;;;12.98;5.30;;;;;;;;;;5072716;28;20031;-68
2022/03/19 02:56:53;;;;;;;14.88;5.13;;;;;;;;;;5072724;28;20483;-68
2022/03/19 02:59:29;;;;;;;11.63;5.15;;;;;;;;;;5072589;28;20028;-68
2022/03/19 03:01:58;;;;;;;10.15;5.15;;;;;;;;;;5072824;28;20023;-67
2022/03/19 03:04:23;;;;;;;11.52;5.82;;;;;;;;;;5072645;28;20081;-67
2022/03/19 03:06:51;;;;;;;10.95;5.13;;;;;;;;;;5072875;28;20480;-68
2022/03/19 03:09:22;;;;;;;14.25;4.93;;;;;;;;;;5072164;28;20127;-68
2022/03/19 03:11:48;;;;;;;;;;;;;;;;;;5073276;28;20267;-66
2022/03/19 03:14:14;;;;;;;16.00;5.03;;;;;;;;;;5072214;28;20146;-67
2022/03/19 03:16:41;;;;;;;16.52;5.05;;;;;;;;;;5072387;28;20025;-67
2022/03/19 03:19:10;;;;;;;10.90;5.03;;;;;;;;;;5072084;28;20040;-67
2022/03/19 03:21:36;;;;;;;11.40;5.00;;;;;;;;;;5072602;28;20388;-66
2022/03/19 03:24:03;;;;;;;16.48;5.47;;;;;;;;;;5072157;28;20480;-66
2022/03/19 03:26:30;;;;;;;12.40;5.20;;;;;;;;;;5072345;28;20575;-67
2022/03/19 03:28:56;;;;;;;13.50;5.07;;;;;;;;;;5070982;28;20028;-68
2022/03/19 03:31:22;;;;;;;12.07;4.95;;;;;;;;;;5072387;28;20164;-67
2022/03/19 03:33:48;;;;;;;16.52;5.10;;;;;;;;;;5071742;28;20032;-67
2022/03/19 03:36:14;;;;;;;15.15;5.45;;;;;;;;;;5072185;28;20028;-68
2022/03/19 03:38:41;;;;;;;12.30;5.13;;;;;;;;;;5071611;28;20031;-66
2022/03/19 03:41:07;;;;;;;13.05;5.00;;;;;;;;;;5072126;28;20035;-68
2022/03/19 03:43:33;;;;;;;14.23;5.28;;;;;;;;;;5071820;28;20500;-67
2022/03/19 03:45:58;;;;;;;13.43;5.15;;;;;;;;;;5072084;28;20028;-68
2022/03/19 03:48:24;;;;;;;12.57;5.47;;;;;;;;;;5071677;28;20039;-66
2022/03/19 03:50:52;;;;;;;12.13;5.07;;;;;;;;;;5071690;28;20028;-67
2022/03/19 03:53:18;;;;;;;9.10;4.93;;;;;;;;;;5071440;28;20082;-67
2022/03/19 03:55:44;;;;;;;10.55;5.28;;;;;;;;;;5071990;28;20430;-66
2022/03/19 03:58:11;;;;;;;11.13;4.95;;;;;;;;;;5071514;28;20429;-66
2022/03/19 04:00:37;;;;;;;16.00;4.93;;;;;;;;;;5071420;28;20111;-66
2022/03/19 04:03:04;;;;;;;11.13;4.95;;;;;;;;;;5071496;28;20031;-67
2022/03/19 04:05:30;;;;;;;14.85;5.38;;;;;;;;;;5071475;28;20029;-67
2022/03/19 04:07:56;;;;;;;13.60;4.90;;;;;;;;;;5071329;28;20127;-68
2022/03/19 04:10:21;;;;;;;13.20;4.60;;;;;;;;;;5071196;28;20120;-68
2022/03/19 04:12:47;;;;;;;23.73;5.18;;;;;;;;;;5071522;28;20020;-67
2022/03/19 04:15:12;;;;;;;11.13;4.82;;;;;;;;;;5071073;28;20040;-67
2022/03/19 04:17:40;;;;;;;15.75;5.35;;;;;;;;;;5071395;28;20020;-68
2022/03/19 04:20:06;;;;;;;14.00;5.03;;;;;;;;;;5070856;28;20043;-67
2022/03/19 04:22:40;;;;;;;10.00;4.45;;;;;;;;;;5071354;28;20033;-67
2022/03/19 04:25:20;;;;;;;10.90;4.65;;;;;;;;;;5071343;28;20029;-67
2022/03/19 04:27:50;;;;;;;9.77;4.35;;;;;;;;;;5071091;28;20036;-68
2022/03/19 04:30:17;;;;;;;9.98;4.75;;;;;;;;;;5070518;28;20115;-67
2022/03/19 04:32:44;;;;;;;11.88;4.63;;;;;;;;;;5070795;28;20529;-67
2022/03/19 04:38:06;;;;;;;12.55;4.97;;;;;;;;;;5071182;28;20031;-68
2022/03/19 04:40:32;;;;;;;12.63;4.50;;;;;;;;;;5070676;28;20085;-67
2022/03/19 04:42:58;;;;;;;16.88;5.07;;;;;;;;;;5071469;28;20101;-67
2022/03/19 04:45:25;;;;;;;11.00;4.47;;;;;;;;;;5070503;28;20388;-68
2022/03/19 04:47:51;;;;;;;12.02;4.57;;;;;;;;;;5070740;28;20271;-68
2022/03/19 04:50:17;;;;;;;12.60;4.70;;;;;;;;;;5070541;28;20078;-68
2022/03/19 04:52:43;;;;;;;8.63;4.80;;;;;;;;;;5071246;28;20016;-68
2022/03/19 04:55:10;;;;;;;12.00;4.97;;;;;;;;;;5070504;28;20389;-68
2022/03/19 04:57:37;;;;;;;13.38;5.32;;;;;;;;;;5070757;28;20033;-69
2022/03/19 05:00:04;;;;;;;11.60;5.40;;;;;;;;;;5070024;28;20082;-68
2022/03/19 05:02:30;;;;;;;12.20;5.38;;;;;;;;;;5070493;28;20484;-67
2022/03/19 05:04:55;;;;;;;17.02;5.50;;;;;;;;;;5070574;28;20016;-66
2022/03/19 05:07:22;;;;;;;13.07;5.40;;;;;;;;;;5070322;28;20024;-67
2022/03/19 05:12:35;;;;;;;10.90;4.75;;;;;;;;;;5070900;28;20309;-67
2022/03/19 05:15:00;;;;;;;13.23;5.18;;;;;;;;;;5070096;28;20024;-66
2022/03/19 05:17:26;;;;;;;17.00;5.28;;;;;;;;;;5070459;28;20020;-65
2022/03/19 05:19:52;;;;;;;13.00;5.30;;;;;;;;;;5070288;28;20033;-67
2022/03/19 05:22:18;;;;;;;10.85;5.28;;;;;;;;;;5070275;28;20034;-67
2022/03/19 05:24:44;;;;;;;14.18;4.78;;;;;;;;;;5069921;28;20107;-68
2022/03/19 05:27:11;;;;;;;8.60;5.32;;;;;;;;;;5070064;28;20049;-67
2022/03/19 05:29:36;;;;;;;10.30;4.53;;;;;;;;;;5069663;28;20053;-68
2022/03/19 05:32:02;;;;;;;9.75;4.88;;;;;;;;;;5070138;28;20020;-68
2022/03/19 05:34:31;;;;;;;10.35;4.75;;;;;;;;;;5070123;28;20055;-67
2022/03/19 05:37:00;;;;;;;11.15;4.80;;;;;;;;;;5070271;28;20031;-67
2022/03/19 05:39:27;;;;;;;11.73;4.78;;;;;;;;;;5069840;28;20566;-67
2022/03/19 05:41:53;;;;;;;13.60;5.20;;;;;;;;;;5070208;28;20048;-67
2022/03/19 05:44:18;;;;;;;12.52;5.63;;;;;;;;;;5069761;28;20024;-67
2022/03/19 05:46:44;;;;;;;12.05;5.45;;;;;;;;;;5069713;28;20070;-67
2022/03/19 05:49:09;;;;;;;12.82;4.78;;;;;;;;;;5069737;28;20036;-67
2022/03/19 05:51:35;;;;;;;11.48;5.07;;;;;;;;;;5069523;28;20435;-67
2022/03/19 05:54:00;;;;;;;15.20;4.93;;;;;;;;;;5069979;28;20170;-67
2022/03/19 05:56:26;;;;;;;11.88;4.97;;;;;;;;;;5069951;28;20381;-68
2022/03/19 05:58:52;;;;;;;12.13;5.03;;;;;;;;;;5068612;28;20431;-68
2022/03/19 06:01:17;;;;;;;12.45;4.80;;;;;;;;;;5069338;28;20024;-67
2022/03/19 06:03:43;;;;;;;12.73;4.68;;;;;;;;;;5069694;28;20039;-68
2022/03/19 06:06:10;;;;;;;17.60;5.53;;;;;;;;;;5069485;28;20021;-68
2022/03/19 06:08:35;;;;;;;17.98;5.25;;;;;;;;;;5070111;28;20040;-67
2022/03/19 06:11:00;;;;;;;16.55;5.18;;;;;;;;;;5069650;28;20016;-67
2022/03/19 06:13:26;;;;;;;12.20;5.25;;;;;;;;;;5069892;28;20416;-67
2022/03/19 06:15:52;;;;;;;17.02;5.60;;;;;;;;;;5069843;28;20103;-67
2022/03/19 06:18:17;;;;;;;15.15;5.82;;;;;;;;;;5069759;28;20499;-67
2022/03/19 06:20:43;;;;;;;12.38;5.30;;;;;;;;;;5069259;28;20052;-66
2022/03/19 06:23:08;;;;;;;14.85;5.35;;;;;;;;;;5069531;28;20032;-67
2022/03/19 06:25:35;;;;;;;12.13;5.25;;;;;;;;;;5069190;28;20404;-67
2022/03/19 06:28:03;;;;;;;11.93;5.25;;;;;;;;;;5069790;28;20020;-67
2022/03/19 06:30:31;;;;;;;14.82;5.88;;;;;;;;;;5069308;28;20069;-67
2022/03/19 06:32:58;;;;;;;15.43;5.78;;;;;;;;;;5069616;28;20016;-67
2022/03/19 06:38:09;;;;;;;15.15;5.30;;;;;;;;;;5069726;28;20031;-67
2022/03/19 06:40:35;;;;;;;15.15;5.60;;;;;;;;;;5069099;28;20021;-67
2022/03/19 06:43:01;;;;;;;16.00;5.63;;;;;;;;;;5069254;28;20024;-71
2022/03/19 06:45:26;;;;;;;17.48;5.60;;;;;;;;;;5068882;28;20082;-66
2022/03/19 06:47:52;;;;;;;11.30;5.40;;;;;;;;;;5069772;28;20043;-67
2022/03/19 06:50:17;;;;;;;16.23;5.70;;;;;;;;;;5069423;28;20032;-66
2022/03/19 06:52:43;;;;;;;18.55;5.95;;;;;;;;;;5069596;28;20525;-67
2022/03/19 06:55:09;;;;;;;13.45;5.88;;;;;;;;;;5069171;28;20116;-67
2022/03/19 06:57:34;;;;;;;13.57;5.93;;;;;;;;;;5069180;28;20028;-66
2022/03/19 07:00:00;;;;;;;13.63;5.65;;;;;;;;;;5068829;28;20028;-67
2022/03/19 07:02:25;;;;;;;11.88;5.55;;;;;;;;;;5068965;28;20020;-68
2022/03/19 07:04:51;;;;;;;11.40;5.65;;;;;;;;;;5071740;28;20082;-68
2022/03/19 07:07:17;;;;;;;14.82;5.65;;;;;;;;;;5072545;28;20024;-67
2022/03/19 07:09:43;;;;;;;14.00;5.93;;;;;;;;;;5072682;28;20028;-66
2022/03/19 07:12:11;;;;;;;14.80;5.95;;;;;;;;;;5072528;28;20584;-66
2022/03/19 07:14:37;;;;;;;18.15;5.90;;;;;;;;;;5072707;28;20029;-66
2022/03/19 07:17:03;;;;;;;15.32;5.82;;;;;;;;;;5072068;28;20078;-68
2022/03/19 07:19:29;;;;;;;14.63;6.45;;;;;;;;;;5072771;28;20090;-68
2022/03/19 07:21:54;;;;;;;14.63;6.13;;;;;;;;;;5071932;28;20298;-67
2022/03/19 07:24:20;;;;;;;15.73;5.88;;;;;;;;;;5072602;28;20044;-68
2022/03/19 07:26:45;;;;;;;11.63;5.63;;;;;;;;;;5072107;28;20123;-67
2022/03/19 07:29:13;;;;;;;13.00;5.90;;;;;;;;;;5072352;28;20036;-68
2022/03/19 07:31:39;;;;;;;14.85;6.13;;;;;;;;;;5072096;28;20032;-67
2022/03/19 07:34:04;;;;;;;16.55;6.57;;;;;;;;;;5072287;28;20400;-68
2022/03/19 07:36:31;;;;;;;15.23;6.38;;;;;;;;;;5072202;28;20483;-68
2022/03/19 07:38:56;;;;;;;16.13;6.80;;;;;;;;;;5072398;28;20445;-69
2022/03/19 07:44:06;;;;;;;13.50;6.25;;;;;;;;;;5072758;28;20537;-67
2022/03/19 07:46:31;;;;;;;19.17;6.63;;;;;;;;;;5071475;28;20025;-68
2022/03/19 07:48:57;;;;;;;17.17;6.45;;;;;;;;;;5072013;28;20033;-68
2022/03/19 07:51:22;;;;;;;15.75;7.22;;;;;;;;;;5071657;28;20109;-68
2022/03/19 07:53:48;;;;;;;15.65;7.05;;;;;;;;;;5072119;28;20056;-67
2022/03/19 07:56:13;;;;;;;15.07;6.75;;;;;;;;;;5071657;28;20606;-67
2022/03/19 07:58:40;;;;;;;17.50;7.07;;;;;;;;;;5071669;28;20025;-67
2022/03/19 08:01:06;;;;;;;17.38;6.88;;;;;;;;;;5071099;28;20028;-68
2022/03/19 08:03:31;;;;;;;16.60;7.10;;;;;;;;;;5071846;28;20027;-66
2022/03/19 08:05:56;;;;;;;11.82;6.55;;;;;;;;;;5071223;28;20056;-68
2022/03/19 08:08:22;;;;;;;16.30;6.93;;;;;;;;;;5072164;28;20431;-67
2022/03/19 08:10:47;;;;;;;15.32;6.70;;;;;;;;;;5071588;28;20278;-66
2022/03/19 08:13:13;;;;;;;21.27;8.25;;;;;;;;;;5071385;28;20430;-68
2022/03/19 08:15:40;;;;;;;12.95;6.93;;;;;;;;;;5070928;28;20027;-67
2022/03/19 08:18:06;;;;;;;16.48;6.80;;;;;;;;;;5071098;28;20028;-67
2022/03/19 08:20:31;;;;;;;13.52;6.50;;;;;;;;;;5071086;28;20052;-68
2022/03/19 08:22:57;;;;;;;17.92;7.35;;;;;;;;;;5070874;28;20114;-68
2022/03/19 08:25:22;;;;;;;16.25;7.15;;;;;;;;;;5071191;28;20040;-68
2022/03/19 08:27:50;;;;;;;16.30;6.82;;;;;;;;;;5070944;28;20021;-68
2022/03/19 08:30:18;;;;;;;16.42;6.30;;;;;;;;;;5070817;28;20028;-67
2022/03/19 08:32:43;;;;;;;12.05;6.30;;;;;;;;;;5070917;28;20020;-68
2022/03/19 08:35:09;;;;;;;13.05;7.13;;;;;;;;;;5070901;28;20035;-67
2022/03/19 08:37:36;;;;;;;13.77;6.88;;;;;;;;;;5070724;28;20020;-67
2022/03/19 08:40:24;;;;;;;17.75;6.68;;;;;;;;;;5070819;28;20031;-67
2022/03/19 08:42:52;;;;;;;17.10;7.05;;;;;;;;;;5070864;28;20067;-67
2022/03/19 08:45:22;;;;;;;16.67;6.75;;;;;;;;;;5070862;28;20093;-67
2022/03/19 08:47:48;;;;;;;18.20;7.10;;;;;;;;;;5070698;28;20086;-68
2022/03/19 08:50:14;;;;;;;13.38;6.80;;;;;;;;;;5070833;28;20032;-67
2022/03/19 08:52:40;;;;;;;13.23;6.40;;;;;;;;;;5070419;28;20035;-67
2022/03/19 08:55:06;;;;;;;15.82;6.75;;;;;;;;;;5070582;28;20031;-66
2022/03/19 08:57:31;;;;;;;14.32;6.38;;;;;;;;;;5070413;28;20032;-68
2022/03/19 08:59:57;;;;;;;18.33;6.43;;;;;;;;;;5070285;28;20519;-65
2022/03/19 09:02:23;;;;;;;18.25;6.63;;;;;;;;;;5070364;28;20092;-68
2022/03/19 09:04:48;;;;;;;15.45;6.63;;;;;;;;;;5070561;28;20368;-68
2022/03/19 09:07:14;;;;;;;16.23;7.13;;;;;;;;;;5070317;28;20032;-68
2022/03/19 09:09:41;;;;;;;14.60;6.80;;;;;;;;;;5070508;28;20198;-68
2022/03/19 09:12:07;;;;;;;15.93;6.35;;;;;;;;;;5069999;28;20020;-68
2022/03/19 09:14:33;;;;;;;14.48;6.68;;;;;;;;;;5070340;28;20024;-68
2022/03/19 09:16:58;;;;;;;16.90;6.93;;;;;;;;;;5069969;28;20027;-68
2022/03/19 09:19:27;;;;;;;13.68;5.75;;;;;;;;;;5071280;28;20031;-68
2022/03/19 09:21:53;;;;;;;16.77;6.60;;;;;;;;;;5070853;28;20020;-68
2022/03/19 09:24:19;;;;;;;15.73;7.13;;;;;;;;;;5070775;28;20495;-67
2022/03/19 09:26:44;;;;;;;16.02;6.80;;;;;;;;;;5069235;28;20105;-68
2022/03/19 09:29:09;;;;;;;14.32;6.40;;;;;;;;;;5070345;28;20032;-67
2022/03/19 09:31:35;;;;;;;14.20;5.97;;;;;;;;;;5070060;28;20486;-66
2022/03/19 09:34:00;;;;;;;15.13;6.80;;;;;;;;;;5069763;28;20028;-67
2022/03/19 09:36:26;;;;;;;16.63;6.60;;;;;;;;;;5069946;28;20369;-68
2022/03/19 09:38:51;;;;;;;15.80;6.53;;;;;;;;;;5069734;28;20036;-67
2022/03/19 09:41:17;;;;;;;14.13;6.65;;;;;;;;;;5070102;28;20132;-67
2022/03/19 09:43:42;;;;;;;19.20;7.03;;;;;;;;;;5070100;28;20029;-67
2022/03/19 09:46:08;;;;;;;17.88;7.05;;;;;;;;;;5069843;28;20154;-67
2022/03/19 09:48:34;;;;;;;18.33;7.60;;;;;;;;;;5069676;28;20029;-67
2022/03/19 09:51:00;;;;;;;20.35;7.47;;;;;;;;;;5069667;28;20025;-68
2022/03/19 09:53:28;;;;;;;18.73;7.82;;;;;;;;;;5069542;28;20032;-72
2022/03/19 09:55:56;;;;;;;17.55;7.22;;;;;;;;;;5070147;28;20260;-70
2022/03/19 09:58:22;;;;;;;18.17;8.13;;;;;;;;;;5069647;28;20103;-71
2022/03/19 10:00:48;;;;;;;20.40;7.75;;;;;;;;;;5069860;28;20032;-66
2022/03/19 10:03:14;;;;;;;19.70;7.43;;;;;;;;;;5069452;28;20047;-67
2022/03/19 10:08:35;;;;;;;19.05;7.40;;;;;;;;;;5069708;28;20036;-67
2022/03/19 10:11:11;;;;;;;18.52;7.15;;;;;;;;;;5069490;28;20107;-67
2022/03/19 10:13:44;;;;;;;15.05;7.38;;;;;;;;;;5069291;28;20024;-66
2022/03/19 10:16:11;;;;;;;17.40;7.57;;;;;;;;;;5069529;28;20518;-68
2022/03/19 10:18:36;;;;;;;16.08;7.35;;;;;;;;;;5069723;28;20087;-67
2022/03/19 10:21:16;;;;;;;17.52;7.72;;;;;;;;;;5069624;28;20067;-67
2022/03/19 10:23:42;;;;;;;17.15;7.47;;;;;;;;;;5069533;28;20031;-69
2022/03/19 10:26:28;;;;;;;18.98;7.50;;;;;;;;;;5069553;28;20117;-67
2022/03/19 10:28:56;;;;;;;19.50;7.40;;;;;;;;;;5069253;28;20493;-67
2022/03/19 10:31:46;;;;;;;21.88;7.80;;;;;;;;;;5069122;28;20031;-67
2022/03/19 10:34:12;;;;;;;19.08;7.43;;;;;;;;;;5069316;28;20553;-67
2022/03/19 10:36:45;;;;;;;16.80;7.88;;;;;;;;;;5069380;28;20048;-67
2022/03/19 10:39:12;;;;;;;16.90;7.97;;;;;;;;;;5072964;28;20387;-67
2022/03/19 10:41:38;;;;;;;19.45;7.40;;;;;;;;;;5073120;28;20025;-66
2022/03/19 10:44:24;;;;;;;17.15;7.03;;;;;;;;;;5073172;28;20021;-67
2022/03/19 10:46:59;;;;;;;14.85;6.97;;;;;;;;;;5071928;28;20104;-66
2022/03/19 10:49:27;;;;;;;15.70;6.82;;;;;;;;;;5073110;28;20035;-66
2022/03/19 10:51:55;;;;;;;14.75;7.05;;;;;;;;;;5072775;28;20083;-66
2022/03/19 10:54:22;;;;;;;20.98;7.38;;;;;;;;;;5072912;28;20047;-66
2022/03/19 10:56:48;;;;;;;14.43;6.90;;;;;;;;;;5072928;28;20025;-67
2022/03/19 10:59:14;;;;;;;18.83;6.72;;;;;;;;;;5072789;28;20064;-66
2022/03/19 11:01:41;;;;;;;14.38;6.90;;;;;;;;;;5072968;28;20110;-66
2022/03/19 11:04:09;;;;;;;12.52;6.65;;;;;;;;;;5073187;28;20016;-66
2022/03/19 11:06:39;;;;;;;19.60;6.50;;;;;;;;;;5071525;28;20392;-66
2022/03/19 11:09:10;;;;;;;15.02;6.75;;;;;;;;;;5072465;28;20024;-66
2022/03/19 11:11:55;;;;;;;15.65;6.75;;;;;;;;;;5072201;28;20029;-71
2022/03/19 11:14:24;;;;;;;18.38;7.07;;;;;;;;;;5072305;28;20028;-66
2022/03/19 11:19:45;;;;;;;12.35;6.03;;;;;;;;;;5072517;28;20035;-73
2022/03/19 11:22:11;;;;;;;12.45;6.15;;;;;;;;;;5072346;28;20488;-70
2022/03/19 11:24:44;;;;;;;14.30;6.28;;;;;;;;;;5072361;28;20023;-71
2022/03/19 11:27:11;;;;;;;15.57;6.72;;;;;;;;;;5072032;28;20040;-68
2022/03/19 11:29:36;;;;;;;13.88;6.35;;;;;;;;;;5070612;28;20060;-72
2022/03/19 11:32:02;;;;;;;16.38;6.47;;;;;;;;;;5072457;28;20312;-72
2022/03/19 11:34:46;;;;;;;16.73;6.50;;;;;;;;;;5072358;28;20020;-72
2022/03/19 11:37:13;;;;;;;19.17;5.93;;;;;;;;;;5072468;28;20565;-73
2022/03/19 11:39:44;;;;;;;18.05;6.28;;;;;;;;;;5072699;28;20043;-72
2022/03/19 11:42:15;;;;;;;19.38;6.47;;;;;;;;;;5072107;28;20029;-68
2022/03/19 11:44:47;;;;;;;;;;;;;;;;;;5072439;28;20025;-70
2022/03/19 11:47:16;;;;;;;18.35;6.05;;;;;;;;;;5072179;28;19922;-67
2022/03/19 11:49:55;;;;;;;17.30;6.60;;;;;;;;;;5071027;28;20484;-71
2022/03/19 11:52:26;;;;;;;13.90;6.13;;;;;;;;;;5072375;28;20028;-67
2022/03/19 11:55:00;;;;;;;11.45;5.90;;;;;;;;;;5072346;28;20066;-67
2022/03/19 11:57:26;;;;;;;17.38;6.53;;;;;;;;;;5072609;28;20021;-69
2022/03/19 11:59:58;;;;;;;10.55;5.72;;;;;;;;;;5072519;28;20129;-70
2022/03/19 12:02:24;;;;;;;12.45;5.93;;;;;;;;;;5072079;28;20098;-72
2022/03/19 12:04:52;;;;;;;10.85;5.68;;;;;;;;;;5071481;28;20314;-67
2022/03/19 12:07:44;;;;;;;12.80;5.43;;;;;;;;;;5072281;28;20024;-67
2022/03/19 12:10:15;;;;;;;12.55;5.45;;;;;;;;;;5072744;28;20032;-70
2022/03/19 12:12:42;;;;;;;12.80;5.40;;;;;;;;;;5072909;28;20021;-71
2022/03/19 12:15:32;;;;;;;12.30;5.30;;;;;;;;;;5071033;28;20476;-67
2022/03/19 12:18:29;;;;;;;10.65;5.38;;;;;;;;;;5071362;28;20052;-72
2022/03/19 12:21:16;;;;;;;10.88;5.22;;;;;;;;;;5071769;28;20041;-67
2022/03/19 12:23:55;;;;;;;11.95;5.30;;;;;;;;;;5071038;28;20108;-71
2022/03/19 12:26:22;;;;;;;11.23;5.30;;;;;;;;;;5071019;28;20045;-66
2022/03/19 12:28:59;;;;;;;15.20;5.10;;;;;;;;;;5070795;28;20024;-67
2022/03/19 12:31:30;;;;;;;13.00;5.03;;;;;;;;;;5071097;28;20209;-66
2022/03/19 12:33:55;;;;;;;16.02;5.72;;;;;;;;;;5070708;28;20025;-67
2022/03/19 12:36:21;;;;;;;10.48;5.38;;;;;;;;;;5071046;28;20061;-67
2022/03/19 12:38:50;;;;;;;11.88;5.00;;;;;;;;;;5071019;28;20029;-66
2022/03/19 12:41:23;;;;;;;14.65;5.30;;;;;;;;;;5070740;28;20507;-70
2022/03/19 12:43:50;;;;;;;12.18;5.15;;;;;;;;;;5070627;28;20025;-71
2022/03/19 12:46:34;;;;;;;11.98;5.00;;;;;;;;;;5070526;28;20033;-72
2022/03/19 12:49:07;;;;;;;11.80;4.97;;;;;;;;;;5070511;28;20531;-68
2022/03/19 12:51:33;;;;;;;11.20;5.18;;;;;;;;;;5069500;28;20496;-68
2022/03/19 12:53:59;;;;;;;12.52;4.82;;;;;;;;;;5070437;28;20054;-68
2022/03/19 12:56:27;;;;;;;10.32;5.05;;;;;;;;;;5070563;28;20500;-68
2022/03/19 12:58:55;;;;;;;14.95;5.07;;;;;;;;;;5070303;28;20400;-68
2022/03/19 13:01:26;;;;;;;10.75;4.97;;;;;;;;;;5070182;28;20017;-68
2022/03/19 13:04:01;;;;;;;9.85;4.60;;;;;;;;;;5069765;28;20050;-68
2022/03/19 13:06:27;;;;;;;9.40;4.82;;;;;;;;;;5070554;28;20020;-67
2022/03/19 13:08:52;;;;;;;14.02;5.22;;;;;;;;;;5070403;28;20031;-67
2022/03/19 13:11:18;;;;;;;10.15;5.22;;;;;;;;;;5070264;28;20012;-71
2022/03/19 13:13:45;;;;;;;12.25;5.20;;;;;;;;;;5070399;28;20024;-68
2022/03/19 13:16:12;;;;;;;10.25;5.00;;;;;;;;;;5070296;28;20392;-69
2022/03/19 13:18:41;;;;;;;7.97;4.47;;;;;;;;;;5070410;28;20451;-68
2022/03/19 13:21:12;;;;;;;11.70;5.20;;;;;;;;;;5069786;28;20040;-68
2022/03/19 13:23:41;;;;;;;9.40;5.20;;;;;;;;;;5069968;28;20028;-68
2022/03/19 13:26:07;;;;;;;12.23;5.20;;;;;;;;;;5069752;28;20593;-67
2022/03/19 13:28:33;;;;;;;11.45;5.13;;;;;;;;;;5070077;28;20369;-67
2022/03/19 13:31:00;;;;;;;13.43;5.32;;;;;;;;;;5069853;28;20091;-68
2022/03/19 13:33:31;;;;;;;11.82;5.07;;;;;;;;;;5070232;28;20488;-68
2022/03/19 13:35:56;;;;;;;;;;;;;;;;;;5070423;28;20067;-66
2022/03/19 13:38:24;;;;;;;8.55;4.70;;;;;;;;;;5070174;28;19913;-68
2022/03/19 13:40:52;;;;;;;11.82;5.10;;;;;;;;;;5069781;28;20052;-67
2022/03/19 13:43:22;;;;;;;8.65;5.03;;;;;;;;;;5069836;28;20029;-67
2022/03/19 13:45:47;;;;;;;12.00;5.13;;;;;;;;;;5069501;28;20452;-66
2022/03/19 13:48:14;;;;;;;13.05;5.03;;;;;;;;;;5069867;28;20064;-67
2022/03/19 13:50:54;;;;;;;8.57;4.93;;;;;;;;;;5069910;28;20032;-68
2022/03/19 13:53:19;;;;;;;18.52;5.40;;;;;;;;;;5069955;28;20039;-67
2022/03/19 13:55:45;;;;;;;16.63;5.60;;;;;;;;;;5070015;28;20032;-68
2022/03/19 13:58:13;;;;;;;13.52;5.75;;;;;;;;;;5070111;28;20420;-67
2022/03/19 14:00:41;;;;;;;13.23;5.30;;;;;;;;;;5069579;28;20062;-69
2022/03/19 14:03:16;;;;;;;13.05;5.80;;;;;;;;;;5069704;28;20017;-66
2022/03/19 14:05:48;;;;;;;10.80;5.75;;;;;;;;;;5069582;28;20500;-67
2022/03/19 14:08:19;;;;;;;11.40;5.50;;;;;;;;;;5070224;28;20167;-68
2022/03/19 14:10:53;;;;;;;11.90;5.60;;;;;;;;;;5069713;28;20025;-69
2022/03/19 14:13:22;;;;;;;12.07;5.20;;;;;;;;;;5072034;28;20028;-67
2022/03/19 14:15:55;;;;;;;8.98;5.10;;;;;;;;;;5073680;28;20035;-67
2022/03/19 14:18:27;;;;;;;10.13;5.10;;;;;;;;;;5073718;28;20031;-70
2022/03/19 14:20:54;;;;;;;10.90;5.28;;;;;;;;;;5073558;28;20024;-67
2022/03/19 14:23:20;;;;;;;12.75;5.32;;;;;;;;;;5073335;28;20027;-69
2022/03/19 14:25:46;;;;;;;10.88;4.90;;;;;;;;;;5073462;28;20040;-68
2022/03/19 14:28:15;;;;;;;13.60;5.60;;;;;;;;;;5072487;28;20504;-69
2022/03/19 14:30:42;;;;;;;14.52;5.57;;;;;;;;;;5073310;28;20451;-67
2022/03/19 14:33:08;;;;;;;10.73;5.28;;;;;;;;;;5073624;28;20254;-72
2022/03/19 14:36:03;;;;;;;11.52;5.20;;;;;;;;;;5073496;28;20032;-67
2022/03/19 14:38:40;;;;;;;8.65;4.85;;;;;;;;;;5073238;28;20038;-71
2022/03/19 14:41:11;;;;;;;11.98;4.97;;;;;;;;;;5072967;28;20067;-68
2022/03/19 14:43:39;;;;;;;10.98;5.30;;;;;;;;;;5073049;28;20120;-67
2022/03/19 14:46:07;;;;;;;10.57;5.10;;;;;;;;;;5072963;28;20480;-70
2022/03/19 14:48:33;;;;;;;9.98;5.45;;;;;;;;;;5073353;28;20105;-71
2022/03/19 14:51:02;;;;;;;12.05;5.50;;;;;;;;;;5072998;28;20117;-71
2022/03/19 14:53:28;;;;;;;13.13;5.43;;;;;;;;;;5072946;28;20027;-72